Time;durP1;ratioP1;P1;durP2;ratioP2;P2;SDS_P1;SDS_P2;PMS_P1;PMS_P2;Temp;Humidity;BMP_temperature;BMP_pressure;BME280_temperature;BME280_humidity;BME280_pressure;Samples;Min_cycle;Max_cycle;Signal;HPM_P1;HPM_P2
2022/05/15 00:00:58;;;;;;;9.33;5.70;;;;;;;;;;5093532;28;20301;-57
2022/05/15 00:03:25;;;;;;;8.80;5.10;;;;;;;;;;5093510;28;20241;-57
2022/05/15 00:05:52;;;;;;;8.90;5.20;;;;;;;;;;5093295;28;20202;-57
2022/05/15 00:08:18;;;;;;;9.67;5.30;;;;;;;;;;5093667;28;20202;-58
2022/05/15 00:10:44;;;;;;;11.47;5.37;;;;;;;;;;5093132;28;20252;-57
2022/05/15 00:13:10;;;;;;;10.27;5.40;;;;;;;;;;5093041;28;20738;-57
2022/05/15 00:15:38;;;;;;;11.60;5.33;;;;;;;;;;5091268;28;20669;-57
2022/05/15 00:18:04;;;;;;;12.93;5.77;;;;;;;;;;5093208;28;20203;-57
2022/05/15 00:20:30;;;;;;;11.03;5.77;;;;;;;;;;5093309;28;20195;-56
2022/05/15 00:22:56;;;;;;;9.17;5.23;;;;;;;;;;5092738;28;20195;-57
2022/05/15 00:25:22;;;;;;;7.80;4.67;;;;;;;;;;5092864;28;20409;-57
2022/05/15 00:27:48;;;;;;;8.00;5.27;;;;;;;;;;5090648;28;20314;-57
2022/05/15 00:30:15;;;;;;;7.83;4.53;;;;;;;;;;5092906;28;20670;-57
2022/05/15 00:32:42;;;;;;;11.00;5.37;;;;;;;;;;5092783;28;20561;-57
2022/05/15 00:35:09;;;;;;;9.10;5.40;;;;;;;;;;5092815;28;20210;-57
2022/05/15 00:37:35;;;;;;;8.90;5.13;;;;;;;;;;5092520;28;20195;-58
2022/05/15 00:40:01;;;;;;;9.20;5.40;;;;;;;;;;5092864;28;20567;-57
2022/05/15 00:42:27;;;;;;;8.83;5.30;;;;;;;;;;5092580;28;20195;-57
2022/05/15 00:44:52;;;;;;;11.80;5.50;;;;;;;;;;5092620;28;20195;-57
2022/05/15 00:47:18;;;;;;;9.77;5.77;;;;;;;;;;5092920;28;20585;-57
2022/05/15 00:49:46;;;;;;;10.10;5.40;;;;;;;;;;5092468;28;20191;-57
2022/05/15 00:52:14;;;;;;;11.43;5.50;;;;;;;;;;5092385;28;20208;-57
2022/05/15 00:54:42;;;;;;;8.83;4.83;;;;;;;;;;5092318;28;20195;-57
2022/05/15 00:57:09;;;;;;;9.40;4.77;;;;;;;;;;5092152;28;20297;-57
2022/05/15 00:59:38;;;;;;;7.83;4.87;;;;;;;;;;5092351;28;20198;-57
2022/05/15 01:02:04;;;;;;;7.67;4.73;;;;;;;;;;5092145;28;20206;-57
2022/05/15 01:04:31;;;;;;;9.10;5.03;;;;;;;;;;5092383;28;20209;-57
2022/05/15 01:07:00;;;;;;;7.27;4.60;;;;;;;;;;5092119;28;20230;-57
2022/05/15 01:09:26;;;;;;;8.50;4.73;;;;;;;;;;5092282;28;20207;-60
2022/05/15 01:11:52;;;;;;;8.67;4.57;;;;;;;;;;5092029;28;20209;-58
2022/05/15 01:14:19;;;;;;;8.00;4.83;;;;;;;;;;5092230;28;20195;-57
2022/05/15 01:16:45;;;;;;;7.80;4.47;;;;;;;;;;5091865;28;20267;-56
2022/05/15 01:19:11;;;;;;;8.00;4.70;;;;;;;;;;5091878;28;20195;-57
2022/05/15 01:21:40;;;;;;;8.30;5.23;;;;;;;;;;5091641;28;20705;-57
2022/05/15 01:24:07;;;;;;;9.87;5.27;;;;;;;;;;5091501;28;20720;-57
2022/05/15 01:26:34;;;;;;;7.27;4.40;;;;;;;;;;5091937;28;20222;-57
2022/05/15 01:29:00;;;;;;;7.80;4.70;;;;;;;;;;5092088;28;20199;-57
2022/05/15 01:31:26;;;;;;;8.03;4.70;;;;;;;;;;5091974;28;20684;-57
2022/05/15 01:33:53;;;;;;;7.50;4.40;;;;;;;;;;5092072;28;20198;-57
2022/05/15 01:36:20;;;;;;;9.27;4.63;;;;;;;;;;5091682;28;20199;-57
2022/05/15 01:38:48;;;;;;;8.27;5.00;;;;;;;;;;5091633;28;20251;-57
2022/05/15 01:41:14;;;;;;;8.00;5.00;;;;;;;;;;5091826;28;20191;-57
2022/05/15 01:43:40;;;;;;;8.50;4.33;;;;;;;;;;5091860;28;20209;-57
2022/05/15 01:46:07;;;;;;;9.00;4.57;;;;;;;;;;5091434;28;20696;-56
2022/05/15 01:48:33;;;;;;;7.97;4.20;;;;;;;;;;5091923;28;20238;-57
2022/05/15 01:50:59;;;;;;;9.20;4.50;;;;;;;;;;5093941;28;20221;-57
2022/05/15 01:53:25;;;;;;;8.87;4.47;;;;;;;;;;5095897;28;20222;-57
2022/05/15 01:55:52;;;;;;;6.47;4.13;;;;;;;;;;5095715;28;20289;-57
2022/05/15 01:58:19;;;;;;;9.87;4.30;;;;;;;;;;5095865;28;20203;-57
2022/05/15 02:00:45;;;;;;;6.83;4.03;;;;;;;;;;5095704;28;20183;-57
2022/05/15 02:03:11;;;;;;;7.13;4.20;;;;;;;;;;5095676;28;20677;-57
2022/05/15 02:05:37;;;;;;;7.83;4.40;;;;;;;;;;5095592;28;20199;-56
2022/05/15 02:08:03;;;;;;;7.47;4.43;;;;;;;;;;5095446;28;20241;-56
2022/05/15 02:10:29;;;;;;;6.00;4.10;;;;;;;;;;5095650;28;20637;-57
2022/05/15 02:12:57;;;;;;;9.27;4.30;;;;;;;;;;5095535;28;20294;-57
2022/05/15 02:15:23;;;;;;;10.57;4.20;;;;;;;;;;5095673;28;20467;-56
2022/05/15 02:17:49;;;;;;;10.37;3.93;;;;;;;;;;5095741;28;20201;-56
2022/05/15 02:20:15;;;;;;;6.57;3.93;;;;;;;;;;5095452;28;20195;-56
2022/05/15 02:22:42;;;;;;;8.23;4.10;;;;;;;;;;5095525;28;20215;-57
2022/05/15 02:25:09;;;;;;;7.80;3.93;;;;;;;;;;5095028;28;20351;-56
2022/05/15 02:27:34;;;;;;;8.93;3.77;;;;;;;;;;5095281;28;20248;-57
2022/05/15 02:30:04;;;;;;;9.87;4.33;;;;;;;;;;5095090;28;20207;-56
2022/05/15 02:32:29;;;;;;;8.27;4.17;;;;;;;;;;5095320;28;20286;-56
2022/05/15 02:34:55;;;;;;;12.63;4.40;;;;;;;;;;5095093;28;20791;-57
2022/05/15 02:37:21;;;;;;;5.90;3.60;;;;;;;;;;5095202;28;20199;-56
2022/05/15 02:39:47;;;;;;;6.17;3.87;;;;;;;;;;5094839;28;20198;-56
2022/05/15 02:42:13;;;;;;;8.80;4.37;;;;;;;;;;5094855;28;20665;-57
2022/05/15 02:44:39;;;;;;;6.33;3.83;;;;;;;;;;5094645;28;20213;-56
2022/05/15 02:47:07;;;;;;;6.87;4.17;;;;;;;;;;5094679;28;20321;-57
2022/05/15 02:52:17;;;;;;;7.67;4.23;;;;;;;;;;5094725;28;20222;-56
2022/05/15 02:54:43;;;;;;;8.70;4.20;;;;;;;;;;5094886;28;20222;-56
2022/05/15 02:57:10;;;;;;;6.03;3.67;;;;;;;;;;5094593;28;20201;-56
2022/05/15 02:59:37;;;;;;;9.40;4.07;;;;;;;;;;5094653;28;20222;-56
2022/05/15 03:02:03;;;;;;;7.17;4.30;;;;;;;;;;5093270;28;20203;-56
2022/05/15 03:04:32;;;;;;;8.57;4.07;;;;;;;;;;5094744;28;20198;-56
2022/05/15 03:06:58;;;;;;;8.17;4.07;;;;;;;;;;5094478;28;20272;-56
2022/05/15 03:09:24;;;;;;;6.17;4.10;;;;;;;;;;5094483;28;20537;-56
2022/05/15 03:11:50;;;;;;;6.93;4.30;;;;;;;;;;5094378;28;20228;-56
2022/05/15 03:14:16;;;;;;;5.57;4.13;;;;;;;;;;5094319;28;20554;-57
2022/05/15 03:16:43;;;;;;;7.37;3.90;;;;;;;;;;5094212;28;20234;-57
2022/05/15 03:19:09;;;;;;;6.03;4.10;;;;;;;;;;5094177;28;20203;-57
2022/05/15 03:21:37;;;;;;;9.63;4.30;;;;;;;;;;5094159;28;20201;-56
2022/05/15 03:24:05;;;;;;;8.27;3.83;;;;;;;;;;5093910;28;20735;-56
2022/05/15 03:26:32;;;;;;;7.67;4.40;;;;;;;;;;5094220;28;20223;-56
2022/05/15 03:28:58;;;;;;;7.90;4.03;;;;;;;;;;5094165;28;20194;-56
2022/05/15 03:31:24;;;;;;;6.83;3.67;;;;;;;;;;5094062;28;20606;-56
2022/05/15 03:33:50;;;;;;;7.03;4.17;;;;;;;;;;5093914;28;20203;-57
2022/05/15 03:36:16;;;;;;;8.60;4.13;;;;;;;;;;5094126;28;20256;-56
2022/05/15 03:38:44;;;;;;;6.53;3.60;;;;;;;;;;5094056;28;20195;-57
2022/05/15 03:41:10;;;;;;;6.43;3.70;;;;;;;;;;5093986;28;20210;-56
2022/05/15 03:43:37;;;;;;;7.13;4.20;;;;;;;;;;5093950;28;20273;-56
2022/05/15 03:46:03;;;;;;;6.53;3.90;;;;;;;;;;5093841;28;20238;-56
2022/05/15 03:48:29;;;;;;;7.67;3.87;;;;;;;;;;5093871;28;20211;-56
2022/05/15 03:50:55;;;;;;;6.07;3.90;;;;;;;;;;5093333;28;20201;-57
2022/05/15 03:53:21;;;;;;;7.87;3.97;;;;;;;;;;5093518;28;20559;-57
2022/05/15 03:55:48;;;;;;;4.97;4.37;;;;;;;;;;5093412;28;20195;-56
2022/05/15 03:58:14;;;;;;;7.73;3.93;;;;;;;;;;5093486;28;20195;-56
2022/05/15 04:00:41;;;;;;;6.77;3.83;;;;;;;;;;5093413;28;20191;-56
2022/05/15 04:03:07;;;;;;;5.20;3.63;;;;;;;;;;5093242;28;20310;-56
2022/05/15 04:05:33;;;;;;;6.87;3.97;;;;;;;;;;5093361;28;20191;-56
2022/05/15 04:08:00;;;;;;;6.13;4.00;;;;;;;;;;5093240;28;20231;-56
2022/05/15 04:10:26;;;;;;;8.80;3.77;;;;;;;;;;5093324;28;20350;-56
2022/05/15 04:12:53;;;;;;;6.90;4.10;;;;;;;;;;5092856;28;20206;-56
2022/05/15 04:15:19;;;;;;;5.63;3.90;;;;;;;;;;5093221;28;20207;-56
2022/05/15 04:17:47;;;;;;;5.87;4.23;;;;;;;;;;5093084;28;20237;-56
2022/05/15 04:20:14;;;;;;;7.33;4.10;;;;;;;;;;5093059;28;20574;-56
2022/05/15 04:22:40;;;;;;;5.53;3.70;;;;;;;;;;5093124;28;20286;-56
2022/05/15 04:25:07;;;;;;;5.20;3.70;;;;;;;;;;5092713;28;20635;-56
2022/05/15 04:27:33;;;;;;;7.73;4.20;;;;;;;;;;5092844;28;20727;-56
2022/05/15 04:30:00;;;;;;;5.67;4.20;;;;;;;;;;5093192;28;20195;-56
2022/05/15 04:32:26;;;;;;;6.43;3.90;;;;;;;;;;5092982;28;20202;-56
2022/05/15 04:34:52;;;;;;;8.20;4.00;;;;;;;;;;5092633;28;20198;-55
2022/05/15 04:37:18;;;;;;;6.23;3.67;;;;;;;;;;5092470;28;20194;-56
2022/05/15 04:39:44;;;;;;;6.37;3.67;;;;;;;;;;5092612;28;20558;-55
2022/05/15 04:42:10;;;;;;;5.30;3.70;;;;;;;;;;5092567;28;20205;-56
2022/05/15 04:44:36;;;;;;;8.80;3.90;;;;;;;;;;5092696;28;20198;-56
2022/05/15 04:47:04;;;;;;;9.30;4.00;;;;;;;;;;5092429;28;20267;-56
2022/05/15 04:49:30;;;;;;;6.20;3.93;;;;;;;;;;5092705;28;20207;-56
2022/05/15 04:51:56;;;;;;;7.07;3.50;;;;;;;;;;5092466;28;20282;-56
2022/05/15 04:54:22;;;;;;;5.70;3.60;;;;;;;;;;5092443;28;20231;-56
2022/05/15 04:56:48;;;;;;;8.50;4.33;;;;;;;;;;5091954;28;20230;-56
2022/05/15 04:59:14;;;;;;;8.53;4.10;;;;;;;;;;5092381;28;20205;-56
2022/05/15 05:01:41;;;;;;;8.90;4.33;;;;;;;;;;5092325;28;20290;-56
2022/05/15 05:04:08;;;;;;;9.30;4.47;;;;;;;;;;5092019;28;20252;-56
2022/05/15 05:06:34;;;;;;;9.10;4.20;;;;;;;;;;5092119;28;20309;-56
2022/05/15 05:09:00;;;;;;;9.00;4.90;;;;;;;;;;5092367;28;20289;-56
2022/05/15 05:11:26;;;;;;;8.57;4.43;;;;;;;;;;5092296;28;20213;-56
2022/05/15 05:13:52;;;;;;;8.60;4.20;;;;;;;;;;5092237;28;20202;-55
2022/05/15 05:16:18;;;;;;;9.70;4.10;;;;;;;;;;5091780;28;20474;-56
2022/05/15 05:18:44;;;;;;;6.30;3.67;;;;;;;;;;5092380;28;20217;-55
2022/05/15 05:21:11;;;;;;;10.00;4.40;;;;;;;;;;5091949;28;20752;-56
2022/05/15 05:23:37;;;;;;;13.00;4.77;;;;;;;;;;5091944;28;20199;-56
2022/05/15 05:26:03;;;;;;;7.30;3.90;;;;;;;;;;5091093;28;20606;-55
2022/05/15 05:28:30;;;;;;;8.40;4.30;;;;;;;;;;5092082;28;20620;-55
2022/05/15 05:30:56;;;;;;;8.77;4.43;;;;;;;;;;5091876;28;20565;-56
2022/05/15 05:33:22;;;;;;;8.10;3.87;;;;;;;;;;5091722;28;20195;-56
2022/05/15 05:35:48;;;;;;;7.53;3.87;;;;;;;;;;5091859;28;20203;-55
2022/05/15 05:38:16;;;;;;;8.63;3.63;;;;;;;;;;5091808;28;20656;-56
2022/05/15 05:40:42;;;;;;;6.83;4.43;;;;;;;;;;5091840;28;20229;-56
2022/05/15 05:43:08;;;;;;;11.10;4.83;;;;;;;;;;5091592;28;20205;-56
2022/05/15 05:45:34;;;;;;;7.97;3.57;;;;;;;;;;5092061;28;20732;-56
2022/05/15 05:48:00;;;;;;;7.83;3.63;;;;;;;;;;5091661;28;20317;-57
2022/05/15 05:50:27;;;;;;;9.33;4.13;;;;;;;;;;5091740;28;20202;-55
2022/05/15 05:52:54;;;;;;;9.03;3.80;;;;;;;;;;5091656;28;20195;-54
2022/05/15 05:55:22;;;;;;;8.73;3.90;;;;;;;;;;5091566;28;20202;-55
2022/05/15 05:57:48;;;;;;;8.13;4.13;;;;;;;;;;5091483;28;20203;-55
2022/05/15 06:00:15;;;;;;;7.57;3.80;;;;;;;;;;5091747;28;20203;-56
2022/05/15 06:02:41;;;;;;;11.17;4.00;;;;;;;;;;5091681;28;20203;-55
2022/05/15 06:05:08;;;;;;;8.57;3.53;;;;;;;;;;5091498;28;20210;-55
2022/05/15 06:07:34;;;;;;;7.03;3.37;;;;;;;;;;5091580;28;20258;-55
2022/05/15 06:10:00;;;;;;;6.03;2.90;;;;;;;;;;5091540;28;20202;-56
2022/05/15 06:12:27;;;;;;;5.97;3.30;;;;;;;;;;5091741;28;20203;-55
2022/05/15 06:14:53;;;;;;;8.37;3.40;;;;;;;;;;5091238;28;20198;-55
2022/05/15 06:17:20;;;;;;;9.57;3.30;;;;;;;;;;5091209;28;20223;-56
2022/05/15 06:19:46;;;;;;;6.97;3.43;;;;;;;;;;5091534;28;20646;-56
2022/05/15 06:22:12;;;;;;;8.47;3.07;;;;;;;;;;5091321;28;20203;-55
2022/05/15 06:24:38;;;;;;;8.17;2.90;;;;;;;;;;5091139;28;20219;-56
2022/05/15 06:27:04;;;;;;;8.53;3.17;;;;;;;;;;5091138;28;20576;-56
2022/05/15 06:29:32;;;;;;;8.77;3.13;;;;;;;;;;5091353;28;20198;-56
2022/05/15 06:31:59;;;;;;;6.23;2.40;;;;;;;;;;5091255;28;20191;-56
2022/05/15 06:34:25;;;;;;;6.13;3.13;;;;;;;;;;5091401;28;20217;-56
2022/05/15 06:36:51;;;;;;;11.77;3.43;;;;;;;;;;5092998;28;20218;-55
2022/05/15 06:39:17;;;;;;;8.37;3.37;;;;;;;;;;5095010;28;20230;-56
2022/05/15 06:41:43;;;;;;;6.23;2.93;;;;;;;;;;5095086;28;20280;-55
2022/05/15 06:44:09;;;;;;;11.00;3.17;;;;;;;;;;5094677;28;20199;-55
2022/05/15 06:46:36;;;;;;;6.67;2.80;;;;;;;;;;5094838;28;20214;-56
2022/05/15 06:49:02;;;;;;;5.23;2.60;;;;;;;;;;5094726;28;20672;-56
2022/05/15 06:51:28;;;;;;;5.17;2.60;;;;;;;;;;5094891;28;20209;-56
2022/05/15 06:53:54;;;;;;;7.47;3.10;;;;;;;;;;5094565;28;20244;-56
2022/05/15 06:59:05;;;;;;;9.43;3.40;;;;;;;;;;5094439;28;20228;-56
2022/05/15 07:01:31;;;;;;;6.93;2.97;;;;;;;;;;5094688;28;20203;-56
2022/05/15 07:03:58;;;;;;;5.70;2.67;;;;;;;;;;5094694;28;20200;-56
2022/05/15 07:06:24;;;;;;;8.07;3.30;;;;;;;;;;5094402;28;20207;-56
2022/05/15 07:08:50;;;;;;;4.90;3.03;;;;;;;;;;5094130;28;20211;-56
2022/05/15 07:11:16;;;;;;;8.67;2.90;;;;;;;;;;5094325;28;20224;-55
2022/05/15 07:13:42;;;;;;;7.53;3.30;;;;;;;;;;5093132;28;20394;-56
2022/05/15 07:16:09;;;;;;;8.03;3.10;;;;;;;;;;5094087;28;20241;-56
2022/05/15 07:18:36;;;;;;;6.77;3.37;;;;;;;;;;5094410;28;20196;-56
2022/05/15 07:21:03;;;;;;;9.97;3.70;;;;;;;;;;5094154;28;20666;-56
2022/05/15 07:23:29;;;;;;;8.70;3.07;;;;;;;;;;5094224;28;20209;-56
2022/05/15 07:25:55;;;;;;;7.43;2.80;;;;;;;;;;5093835;28;20220;-56
2022/05/15 07:28:22;;;;;;;8.57;2.80;;;;;;;;;;5093742;28;20221;-56
2022/05/15 07:30:48;;;;;;;7.70;2.90;;;;;;;;;;5094275;28;20210;-60
2022/05/15 07:33:14;;;;;;;7.30;2.73;;;;;;;;;;5093836;28;20200;-55
2022/05/15 07:35:40;;;;;;;7.43;2.70;;;;;;;;;;5093883;28;20228;-56
2022/05/15 07:38:07;;;;;;;10.37;3.40;;;;;;;;;;5093583;28;20204;-55
2022/05/15 07:40:33;;;;;;;6.30;2.83;;;;;;;;;;5093743;28;20557;-56
2022/05/15 07:42:59;;;;;;;6.27;3.10;;;;;;;;;;5093824;28;20202;-55
2022/05/15 07:45:25;;;;;;;6.63;2.77;;;;;;;;;;5094019;28;20195;-56
2022/05/15 07:47:51;;;;;;;10.07;2.73;;;;;;;;;;5093340;28;20225;-56
2022/05/15 07:50:17;;;;;;;8.07;3.13;;;;;;;;;;5093595;28;20313;-55
2022/05/15 07:52:43;;;;;;;8.03;3.17;;;;;;;;;;5093806;28;20201;-54
2022/05/15 07:55:11;;;;;;;7.27;3.20;;;;;;;;;;5092952;28;20202;-55
2022/05/15 07:57:37;;;;;;;6.00;2.63;;;;;;;;;;5093440;28;20666;-56
2022/05/15 08:00:05;;;;;;;8.30;2.90;;;;;;;;;;5093185;28;20665;-54
2022/05/15 08:02:31;;;;;;;8.57;2.77;;;;;;;;;;5093557;28;20641;-55
2022/05/15 08:08:00;;;;;;;5.27;2.70;;;;;;;;;;5093305;28;20221;-56
2022/05/15 08:10:27;;;;;;;7.10;2.97;;;;;;;;;;5093424;28;20320;-57
2022/05/15 08:12:53;;;;;;;6.77;3.27;;;;;;;;;;5093081;28;20199;-56
2022/05/15 08:15:19;;;;;;;7.80;3.00;;;;;;;;;;5093179;28;20203;-57
2022/05/15 08:17:45;;;;;;;6.63;3.00;;;;;;;;;;5093177;28;20760;-57
2022/05/15 08:23:41;;;;;;;9.03;3.20;;;;;;;;;;5093002;28;20193;-56
2022/05/15 08:25:44;;;;;;;8.07;3.00;;;;;;;;;;5085106;28;20223;-57
2022/05/15 08:28:10;;;;;;;8.80;3.53;;;;;;;;;;5093044;28;20300;-55
2022/05/15 08:30:37;;;;;;;9.80;3.20;;;;;;;;;;5092905;28;20661;-56
2022/05/15 08:33:03;;;;;;;9.50;3.23;;;;;;;;;;5092803;28;20556;-55
2022/05/15 08:35:29;;;;;;;10.30;3.30;;;;;;;;;;5092950;28;20324;-55
2022/05/15 08:37:55;;;;;;;6.27;3.10;;;;;;;;;;5092545;28;20195;-55
2022/05/15 08:40:24;;;;;;;10.20;3.23;;;;;;;;;;5092505;28;20217;-57
2022/05/15 08:42:56;;;;;;;6.80;3.00;;;;;;;;;;5092635;28;20217;-55
2022/05/15 08:45:23;;;;;;;7.60;3.50;;;;;;;;;;5092700;28;20260;-54
2022/05/15 08:47:54;;;;;;;6.63;2.97;;;;;;;;;;5092900;28;20262;-55
2022/05/15 08:50:25;;;;;;;9.33;3.20;;;;;;;;;;5092501;28;20199;-55
2022/05/15 08:52:53;;;;;;;6.13;2.90;;;;;;;;;;5092312;28;20286;-54
2022/05/15 08:55:22;;;;;;;9.23;3.30;;;;;;;;;;5092216;28;20570;-57
2022/05/15 08:57:50;;;;;;;8.73;3.30;;;;;;;;;;5092407;28;20206;-55
2022/05/15 09:00:20;;;;;;;8.23;3.07;;;;;;;;;;5091413;28;20210;-55
2022/05/15 09:02:46;;;;;;;10.93;3.53;;;;;;;;;;5092420;28;20207;-55
2022/05/15 09:05:14;;;;;;;5.57;2.97;;;;;;;;;;5092118;28;20569;-55
2022/05/15 09:07:44;;;;;;;9.23;3.43;;;;;;;;;;5091929;28;20263;-55
2022/05/15 09:10:19;;;;;;;8.50;3.50;;;;;;;;;;5092085;28;20203;-56
2022/05/15 09:12:47;;;;;;;8.27;3.60;;;;;;;;;;5092446;28;20210;-55
2022/05/15 09:15:16;;;;;;;8.90;3.73;;;;;;;;;;5092013;28;20561;-55
2022/05/15 09:17:45;;;;;;;9.43;3.50;;;;;;;;;;5092182;28;20232;-55
2022/05/15 09:20:13;;;;;;;8.03;3.20;;;;;;;;;;5092002;28;20223;-57
2022/05/15 09:22:41;;;;;;;8.40;3.30;;;;;;;;;;5091921;28;20204;-55
2022/05/15 09:25:13;;;;;;;10.13;3.33;;;;;;;;;;5091983;28;20224;-54
2022/05/15 09:27:39;;;;;;;8.60;3.40;;;;;;;;;;5091846;28;20223;-55
2022/05/15 09:30:07;;;;;;;9.87;3.50;;;;;;;;;;5091825;28;20200;-56
2022/05/15 09:32:37;;;;;;;8.50;3.40;;;;;;;;;;5091958;28;20208;-55
2022/05/15 09:35:06;;;;;;;10.03;3.77;;;;;;;;;;5091820;28;20663;-54
2022/05/15 09:40:21;;;;;;;9.93;3.63;;;;;;;;;;5091836;28;20812;-57
2022/05/15 09:45:36;;;;;;;9.27;3.77;;;;;;;;;;5091958;28;20285;-55
2022/05/15 09:48:04;;;;;;;8.67;3.50;;;;;;;;;;5091677;28;20248;-55
2022/05/15 09:50:40;;;;;;;6.33;2.53;;;;;;;;;;5091732;28;20198;-55
2022/05/15 09:53:06;;;;;;;10.23;3.40;;;;;;;;;;5091751;28;20354;-55
2022/05/15 09:55:32;;;;;;;8.63;3.37;;;;;;;;;;5091882;28;20691;-55
2022/05/15 09:57:59;;;;;;;7.47;3.57;;;;;;;;;;5091911;28;20247;-55
2022/05/15 10:00:27;;;;;;;9.50;3.20;;;;;;;;;;5092037;28;20257;-55
2022/05/15 10:02:54;;;;;;;7.67;3.57;;;;;;;;;;5091896;28;20199;-55
2022/05/15 10:05:21;;;;;;;6.73;3.23;;;;;;;;;;5091604;28;20199;-55
2022/05/15 10:07:58;;;;;;;8.17;2.90;;;;;;;;;;5091611;28;20244;-55
2022/05/15 10:10:25;;;;;;;6.97;3.17;;;;;;;;;;5091892;28;20202;-55
2022/05/15 10:12:53;;;;;;;6.80;2.97;;;;;;;;;;5095256;28;20202;-55
2022/05/15 10:15:19;;;;;;;8.90;3.47;;;;;;;;;;5095633;28;20203;-55
2022/05/15 10:17:49;;;;;;;8.97;3.43;;;;;;;;;;5095620;28;20235;-55
2022/05/15 10:20:19;;;;;;;10.70;3.47;;;;;;;;;;5095402;28;20610;-55
2022/05/15 10:22:48;;;;;;;7.37;3.10;;;;;;;;;;5095560;28;20614;-56
2022/05/15 10:25:17;;;;;;;8.10;3.43;;;;;;;;;;5095394;28;20237;-56
2022/05/15 10:27:46;;;;;;;7.10;3.30;;;;;;;;;;5095542;28;20230;-56
2022/05/15 10:30:15;;;;;;;5.20;2.60;;;;;;;;;;5095310;28;20197;-56
2022/05/15 10:32:43;;;;;;;6.03;2.93;;;;;;;;;;5095570;28;20196;-56
2022/05/15 10:35:12;;;;;;;7.27;3.17;;;;;;;;;;5095211;28;20654;-56
2022/05/15 10:37:45;;;;;;;7.23;3.20;;;;;;;;;;5095300;28;20205;-56
2022/05/15 10:40:20;;;;;;;6.33;3.00;;;;;;;;;;5095201;28;20192;-55
2022/05/15 10:42:51;;;;;;;7.30;2.97;;;;;;;;;;5095397;28;20207;-56
2022/05/15 10:45:20;;;;;;;6.40;3.30;;;;;;;;;;5095282;28;20202;-55
2022/05/15 10:47:50;;;;;;;8.67;3.53;;;;;;;;;;5095022;28;20230;-55
2022/05/15 10:50:21;;;;;;;6.73;2.93;;;;;;;;;;5095254;28;20196;-55
2022/05/15 10:53:02;;;;;;;6.17;2.70;;;;;;;;;;5095085;28;20198;-55
2022/05/15 10:58:26;;;;;;;9.03;3.20;;;;;;;;;;5094738;28;20202;-55
2022/05/15 11:00:56;;;;;;;7.33;3.33;;;;;;;;;;5094831;28;20232;-56
2022/05/15 11:03:33;;;;;;;6.83;2.60;;;;;;;;;;5094795;28;20242;-56
2022/05/15 11:06:22;;;;;;;7.83;3.40;;;;;;;;;;5093392;28;20191;-56
2022/05/15 11:08:53;;;;;;;10.40;3.73;;;;;;;;;;5094559;28;20341;-56
2022/05/15 11:11:24;;;;;;;8.40;3.37;;;;;;;;;;5092729;28;20220;-56
2022/05/15 11:13:53;;;;;;;9.77;3.47;;;;;;;;;;5094561;28;20206;-56
2022/05/15 11:16:25;;;;;;;7.67;3.00;;;;;;;;;;5094082;28;20239;-56
2022/05/15 11:19:03;;;;;;;6.50;3.03;;;;;;;;;;5094151;28;20247;-56
2022/05/15 11:21:31;;;;;;;8.53;3.40;;;;;;;;;;5093632;28;20559;-56
2022/05/15 11:24:00;;;;;;;6.63;2.80;;;;;;;;;;5093021;28;20202;-56
2022/05/15 11:26:28;;;;;;;8.23;3.10;;;;;;;;;;5093856;28;20230;-56
2022/05/15 11:28:56;;;;;;;8.27;3.27;;;;;;;;;;5093809;28;20224;-56
2022/05/15 11:31:24;;;;;;;7.97;3.00;;;;;;;;;;5093620;28;20281;-55
2022/05/15 11:33:53;;;;;;;5.00;2.57;;;;;;;;;;5092377;28;20217;-55
2022/05/15 11:36:35;;;;;;;8.43;2.80;;;;;;;;;;5093873;28;20215;-56
2022/05/15 11:39:03;;;;;;;14.07;3.40;;;;;;;;;;5093993;28;20202;-56
2022/05/15 11:41:41;;;;;;;6.50;2.43;;;;;;;;;;5093841;28;20201;-56
2022/05/15 11:44:10;;;;;;;8.43;3.20;;;;;;;;;;5093803;28;20658;-55
2022/05/15 11:46:57;;;;;;;5.20;2.77;;;;;;;;;;5093927;28;20202;-56
2022/05/15 11:49:25;;;;;;;6.60;3.00;;;;;;;;;;5094042;28;20199;-57
2022/05/15 11:52:12;;;;;;;6.73;2.93;;;;;;;;;;5094054;28;20211;-56
2022/05/15 11:54:39;;;;;;;7.70;2.97;;;;;;;;;;5092020;28;20291;-56
2022/05/15 11:57:08;;;;;;;6.80;3.17;;;;;;;;;;5093547;28;20622;-56
2022/05/15 11:59:35;;;;;;;5.17;2.80;;;;;;;;;;5093561;28;20296;-56
2022/05/15 12:02:02;;;;;;;5.70;3.07;;;;;;;;;;5093577;28;20210;-56
2022/05/15 12:04:47;;;;;;;7.10;2.60;;;;;;;;;;5093745;28;20369;-56
2022/05/15 12:07:37;;;;;;;8.23;2.97;;;;;;;;;;5093237;28;20229;-56
2022/05/15 12:10:03;;;;;;;5.00;2.50;;;;;;;;;;5072959;28;20243;-56
2022/05/15 12:12:45;;;;;;;7.53;3.00;;;;;;;;;;5093555;28;20214;-56
2022/05/15 12:15:24;;;;;;;6.97;2.50;;;;;;;;;;5093193;28;20208;-56
2022/05/15 12:17:55;;;;;;;8.97;3.57;;;;;;;;;;5092967;28;20292;-57
2022/05/15 12:20:22;;;;;;;9.00;3.37;;;;;;;;;;5092958;28;20195;-56
2022/05/15 12:22:51;;;;;;;5.33;2.80;;;;;;;;;;5093190;28;20243;-56
2022/05/15 12:25:18;;;;;;;9.10;2.70;;;;;;;;;;5092950;28;20255;-56
2022/05/15 12:27:54;;;;;;;6.67;2.60;;;;;;;;;;5093010;28;20634;-56
2022/05/15 12:30:24;;;;;;;6.20;3.03;;;;;;;;;;5092964;28;20278;-57
2022/05/15 12:32:51;;;;;;;5.47;2.50;;;;;;;;;;5092969;28;20730;-57
2022/05/15 12:35:22;;;;;;;8.77;2.93;;;;;;;;;;5092469;28;20238;-57
2022/05/15 12:37:53;;;;;;;6.67;2.80;;;;;;;;;;5092596;28;20248;-57
2022/05/15 12:40:24;;;;;;;4.43;2.23;;;;;;;;;;5092632;28;20743;-56
2022/05/15 12:42:53;;;;;;;4.57;2.23;;;;;;;;;;5092858;28;20571;-56
2022/05/15 12:45:21;;;;;;;8.03;2.60;;;;;;;;;;5092761;28;20283;-56
2022/05/15 12:47:58;;;;;;;8.40;2.93;;;;;;;;;;5092913;28;20235;-55
2022/05/15 12:50:24;;;;;;;6.83;3.10;;;;;;;;;;5092689;28;20245;-56
2022/05/15 12:52:52;;;;;;;7.50;3.07;;;;;;;;;;5091116;28;20588;-55
2022/05/15 12:55:22;;;;;;;7.77;2.70;;;;;;;;;;5092536;28;20197;-55
2022/05/15 12:57:50;;;;;;;8.30;2.60;;;;;;;;;;5092865;28;20204;-55
2022/05/15 13:00:19;;;;;;;6.33;3.07;;;;;;;;;;5090842;28;20198;-58
2022/05/15 13:02:45;;;;;;;5.97;3.23;;;;;;;;;;5092677;28;20216;-56
2022/05/15 13:05:19;;;;;;;9.23;3.10;;;;;;;;;;5092289;28;20198;-56
2022/05/15 13:07:45;;;;;;;7.40;3.03;;;;;;;;;;5092486;28;20226;-56
2022/05/15 13:10:12;;;;;;;7.70;2.97;;;;;;;;;;5092206;28;20698;-56
2022/05/15 13:12:48;;;;;;;4.97;2.60;;;;;;;;;;5092300;28;20238;-56
2022/05/15 13:15:18;;;;;;;7.57;2.70;;;;;;;;;;5092285;28;20569;-55
2022/05/15 13:17:45;;;;;;;7.17;2.83;;;;;;;;;;5092346;28;20671;-55
2022/05/15 13:20:15;;;;;;;6.60;2.80;;;;;;;;;;5092265;28;20576;-56
2022/05/15 13:22:41;;;;;;;7.13;2.93;;;;;;;;;;5091992;28;20727;-56
2022/05/15 13:25:11;;;;;;;5.90;2.30;;;;;;;;;;5092017;28;20226;-56
2022/05/15 13:27:41;;;;;;;7.83;2.67;;;;;;;;;;5092045;28;20233;-56
2022/05/15 13:30:09;;;;;;;4.73;2.57;;;;;;;;;;5091942;28;20659;-57
2022/05/15 13:32:35;;;;;;;10.47;3.20;;;;;;;;;;5092148;28;20277;-57
2022/05/15 13:35:04;;;;;;;7.07;3.30;;;;;;;;;;5092062;28;20250;-57
2022/05/15 13:37:31;;;;;;;10.40;3.10;;;;;;;;;;5092033;28;20198;-57
2022/05/15 13:45:30;;;;;;;7.90;2.53;;;;;;;;;;5092854;28;20324;-56
2022/05/15 13:48:00;;;;;;;7.17;3.10;;;;;;;;;;5098445;28;20240;-56
2022/05/15 13:50:40;;;;;;;8.83;3.40;;;;;;;;;;5098867;28;20727;-56
2022/05/15 13:53:26;;;;;;;7.67;3.37;;;;;;;;;;5098601;28;20234;-56
2022/05/15 13:55:54;;;;;;;8.70;3.37;;;;;;;;;;5098572;28;20201;-57
2022/05/15 13:58:20;;;;;;;7.13;3.33;;;;;;;;;;5098376;28;20660;-57
2022/05/15 14:01:02;;;;;;;8.53;3.27;;;;;;;;;;5098643;28;20615;-57
2022/05/15 14:03:29;;;;;;;9.03;3.00;;;;;;;;;;5098512;28;20200;-57
2022/05/15 14:06:12;;;;;;;9.27;3.23;;;;;;;;;;5098456;28;20659;-55
2022/05/15 14:08:54;;;;;;;7.17;3.00;;;;;;;;;;5097864;28;20284;-57
2022/05/15 14:11:19;;;;;;;7.73;2.43;;;;;;;;;;5097951;28;20191;-57
2022/05/15 14:13:46;;;;;;;8.43;3.17;;;;;;;;;;5098144;28;20662;-57
2022/05/15 14:16:14;;;;;;;7.80;2.80;;;;;;;;;;5097815;28;20235;-57
2022/05/15 14:18:40;;;;;;;8.20;2.80;;;;;;;;;;5096753;28;20538;-57
2022/05/15 14:21:09;;;;;;;6.03;2.77;;;;;;;;;;5098304;28;20790;-56
2022/05/15 14:23:35;;;;;;;7.40;3.60;;;;;;;;;;5098182;28;20223;-56
2022/05/15 14:26:01;;;;;;;7.20;2.80;;;;;;;;;;5098233;28;20251;-56
2022/05/15 14:28:27;;;;;;;9.83;3.60;;;;;;;;;;5097965;28;20229;-56
2022/05/15 14:30:53;;;;;;;6.70;2.80;;;;;;;;;;5098072;28;20685;-56
2022/05/15 14:33:21;;;;;;;10.63;2.77;;;;;;;;;;5098073;28;20253;-56
2022/05/15 14:35:50;;;;;;;5.83;2.60;;;;;;;;;;5098351;28;20196;-56
2022/05/15 14:38:17;;;;;;;7.40;2.97;;;;;;;;;;5098135;28;20278;-57
2022/05/15 14:40:43;;;;;;;6.37;2.73;;;;;;;;;;5098347;28;20695;-56
2022/05/15 14:43:09;;;;;;;6.87;2.63;;;;;;;;;;5098175;28;20210;-57
2022/05/15 14:45:38;;;;;;;6.70;2.87;;;;;;;;;;5098153;28;20204;-57
2022/05/15 14:48:06;;;;;;;7.67;2.90;;;;;;;;;;5098055;28;20228;-57
2022/05/15 14:50:32;;;;;;;5.70;2.40;;;;;;;;;;5098030;28;20750;-57
2022/05/15 14:53:00;;;;;;;6.10;2.47;;;;;;;;;;5098144;28;20197;-56
2022/05/15 14:58:14;;;;;;;5.13;2.80;;;;;;;;;;5096244;28;20250;-57
2022/05/15 15:00:40;;;;;;;8.83;3.00;;;;;;;;;;5094928;28;20229;-57
2022/05/15 15:03:06;;;;;;;6.27;2.60;;;;;;;;;;5094762;28;20203;-56
2022/05/15 15:05:44;;;;;;;8.17;2.50;;;;;;;;;;5095023;28;20295;-57
2022/05/15 15:08:10;;;;;;;9.13;3.03;;;;;;;;;;5094533;28;20307;-58
2022/05/15 15:10:38;;;;;;;6.43;2.30;;;;;;;;;;5094422;28;20200;-56
2022/05/15 15:13:04;;;;;;;8.57;2.40;;;;;;;;;;5094627;28;20246;-57